Time;durP1;ratioP1;P1;durP2;ratioP2;P2;SDS_P1;SDS_P2;PMS_P1;PMS_P2;Temp;Humidity;BMP_temperature;BMP_pressure;BME280_temperature;BME280_humidity;BME280_pressure;Samples;Min_cycle;Max_cycle;Signal;HPM_P1;HPM_P2
2023/04/22 00:00:50;;;;;;;;;;;;;;;15.20;44.26;100220.25;5451675;32;34489;-70
2023/04/22 00:03:52;;;;;;;;;;;;;;;15.81;42.35;100211.16;5425398;32;35351;-62
2023/04/22 00:06:54;;;;;;;;;;;;;;;15.91;42.13;100214.09;5441534;32;34895;-71
2023/04/22 00:09:56;;;;;;;;;;;;;;;14.62;44.93;100229.88;5440505;32;35144;-71
2023/04/22 00:12:58;;;;;;;;;;;;;;;15.23;43.79;100217.41;5427371;32;34748;-70
2023/04/22 00:16:00;;;;;;;;;;;;;;;15.76;42.82;100212.41;5449451;32;35380;-68
2023/04/22 00:19:02;;;;;;;;;;;;;;;14.68;45.29;100219.84;5440174;32;35003;-69
2023/04/22 00:22:04;;;;;;;;;;;;;;;14.72;45.41;100218.75;5418806;32;35373;-62
2023/04/22 00:25:06;;;;;;;;;;;;;;;14.58;45.93;100220.41;5439194;32;35050;-69
2023/04/22 00:28:08;;;;;;;;;;;;;;;15.22;43.94;100222.81;5449116;32;34337;-71
2023/04/22 00:31:10;;;;;;;;;;;;;;;14.36;46.20;100227.81;5420673;32;35147;-61
2023/04/22 00:34:11;;;;;;;;;;;;;;;14.86;44.95;100218.78;5441865;32;43318;-70
2023/04/22 00:37:13;;;;;;;;;;;;;;;14.94;45.02;100208.59;5449698;32;34878;-70
2023/04/22 00:40:15;;;;;;;;;;;;;;;15.79;42.99;100217.53;5439587;32;34926;-69
2023/04/22 00:43:17;;;;;;;;;;;;;;;15.01;44.70;100220.53;5436475;32;35264;-63
2023/04/22 00:46:19;;;;;;;;;;;;;;;15.06;44.42;100215.78;5439556;32;34497;-72
2023/04/22 00:49:21;;;;;;;;;;;;;;;15.16;44.60;100211.66;5443523;32;35294;-63
2023/04/22 00:52:23;;;;;;;;;;;;;;;15.36;43.85;100213.06;5421973;32;35793;-71
2023/04/22 00:55:25;;;;;;;;;;;;;;;14.80;45.29;100224.41;5415060;32;36009;-60
2023/04/22 00:58:28;;;;;;;;;;;;;;;14.26;47.07;100216.09;5426531;32;35864;-61
2023/04/22 01:01:30;;;;;;;;;;;;;;;15.31;44.27;100201.06;5437184;32;34486;-61
2023/04/22 01:04:32;;;;;;;;;;;;;;;14.82;45.15;100222.56;5448714;32;34375;-68
2023/04/22 01:07:35;;;;;;;;;;;;;;;14.79;45.63;100228.00;5436776;32;34812;-69
2023/04/22 01:10:37;;;;;;;;;;;;;;;14.03;47.45;100235.88;5449370;32;34771;-69
2023/04/22 01:13:38;;;;;;;;;;;;;;;13.57;48.65;100237.53;5442097;32;34789;-60
2023/04/22 01:16:42;;;;;;;;;;;;;;;14.88;45.44;100230.13;5440342;32;46703;-61
2023/04/22 01:19:44;;;;;;;;;;;;;;;14.19;46.44;100233.25;5451201;32;36106;-61
2023/04/22 01:22:46;;;;;;;;;;;;;;;14.24;46.17;100231.19;5417998;32;34900;-70
2023/04/22 01:25:48;;;;;;;;;;;;;;;13.49;48.46;100233.53;5436784;32;34449;-70
2023/04/22 01:28:50;;;;;;;;;;;;;;;13.79;47.80;100235.47;5441047;32;35598;-69
2023/04/22 01:31:52;;;;;;;;;;;;;;;13.79;47.66;100224.88;5427272;32;35128;-70
2023/04/22 01:34:54;;;;;;;;;;;;;;;14.96;44.96;100235.81;5424846;32;34807;-68
2023/04/22 01:37:56;;;;;;;;;;;;;;;14.56;45.42;100243.44;5439541;32;35530;-70
2023/04/22 01:41:01;;;;;;;;;;;;;;;13.61;48.25;100250.50;5451444;32;34381;-70
2023/04/22 01:44:03;;;;;;;;;;;;;;;13.57;48.68;100245.47;5426298;32;35253;-71
2023/04/22 01:47:05;;;;;;;;;;;;;;;14.62;46.25;100243.09;5421978;32;34069;-70
2023/04/22 01:50:08;;;;;;;;;;;;;;;13.44;48.67;100246.09;5436955;32;35098;-61
2023/04/22 01:53:10;;;;;;;;;;;;;;;13.50;48.92;100247.56;5433772;32;35087;-71
2023/04/22 01:56:12;;;;;;;;;;;;;;;13.18;50.39;100249.25;5443692;32;45455;-62
2023/04/22 01:59:14;;;;;;;;;;;;;;;14.21;47.29;100241.91;5439300;32;37025;-69
2023/04/22 02:02:16;;;;;;;;;;;;;;;13.50;49.73;100243.16;5449628;32;35514;-69
2023/04/22 02:05:18;;;;;;;;;;;;;;;14.32;47.69;100239.53;5436146;32;34501;-70
2023/04/22 02:08:20;;;;;;;;;;;;;;;14.25;47.48;100240.81;5449103;32;34953;-70
2023/04/22 02:11:22;;;;;;;;;;;;;;;14.11;47.95;100236.31;5436090;32;35020;-70
2023/04/22 02:14:25;;;;;;;;;;;;;;;13.83;48.46;100239.63;5442616;32;34654;-70
2023/04/22 02:17:27;;;;;;;;;;;;;;;13.81;48.91;100245.00;5422492;32;35642;-60
2023/04/22 02:20:29;;;;;;;;;;;;;;;12.92;50.92;100242.66;5438751;32;35555;-70
2023/04/22 02:23:31;;;;;;;;;;;;;;;13.74;49.01;100233.06;5445784;32;35376;-60
2023/04/22 02:26:33;;;;;;;;;;;;;;;13.28;50.10;100237.31;5425035;32;34705;-69
2023/04/22 02:29:35;;;;;;;;;;;;;;;13.49;49.53;100243.22;5438507;32;35874;-70
2023/04/22 02:32:38;;;;;;;;;;;;;;;13.19;50.80;100241.22;5429544;32;35602;-62
2023/04/22 02:35:44;;;;;;;;;;;;;;;12.91;51.38;100247.09;5411653;32;48353;-76
2023/04/22 02:38:46;;;;;;;;;;;;;;;12.64;52.41;100243.22;5440238;32;45071;-70
2023/04/22 02:41:47;;;;;;;;;;;;;;;12.71;52.55;100240.19;5438413;32;34599;-61
2023/04/22 02:44:49;;;;;;;;;;;;;;;12.63;52.69;100246.78;5447922;32;34478;-61
2023/04/22 02:47:51;;;;;;;;;;;;;;;12.65;52.64;100240.50;5423634;32;36523;-69
2023/04/22 02:50:53;;;;;;;;;;;;;;;12.30;53.91;100241.34;5445691;32;35118;-62
2023/04/22 02:53:55;;;;;;;;;;;;;;;12.77;52.34;100239.03;5439126;32;35020;-71
2023/04/22 02:56:57;;;;;;;;;;;;;;;12.83;52.21;100237.88;5444562;32;36974;-61
2023/04/22 02:59:59;;;;;;;;;;;;;;;12.69;52.54;100238.56;5429472;32;35117;-70
2023/04/22 03:03:01;;;;;;;;;;;;;;;13.49;50.54;100236.16;5439414;32;35003;-69
2023/04/22 03:06:03;;;;;;;;;;;;;;;13.39;50.13;100237.56;5431069;32;35041;-71
2023/04/22 03:09:05;;;;;;;;;;;;;;;13.06;51.60;100239.31;5439529;32;35268;-61
2023/04/22 03:12:07;;;;;;;;;;;;;;;13.26;51.22;100228.59;5447929;32;34293;-70
2023/04/22 03:15:09;;;;;;;;;;;;;;;13.23;51.31;100234.91;5440352;32;32291;-70
2023/04/22 03:18:11;;;;;;;;;;;;;;;13.78;49.82;100233.72;5429214;32;45609;-60
2023/04/22 03:21:13;;;;;;;;;;;;;;;13.81;49.56;100226.50;5444653;32;35228;-61
2023/04/22 03:24:15;;;;;;;;;;;;;;;14.12;48.92;100234.53;5434652;32;35741;-70
2023/04/22 03:27:17;;;;;;;;;;;;;;;13.85;49.59;100235.12;5448030;32;35534;-72
2023/04/22 03:30:19;;;;;;;;;;;;;;;13.47;50.87;100237.19;5424318;32;34089;-70
2023/04/22 03:33:21;;;;;;;;;;;;;;;13.24;51.29;100239.25;5442797;32;35582;-65
2023/04/22 03:36:23;;;;;;;;;;;;;;;12.61;53.44;100251.25;5422616;32;35148;-71
2023/04/22 03:39:25;;;;;;;;;;;;;;;12.58;53.56;100249.63;5443537;32;35118;-60
2023/04/22 03:42:27;;;;;;;;;;;;;;;12.88;53.17;100246.38;5444788;32;35217;-72
2023/04/22 03:45:29;;;;;;;;;;;;;;;13.81;50.21;100249.41;5439269;32;35805;-71
2023/04/22 03:48:34;;;;;;;;;;;;;;;13.48;51.23;100252.94;5445692;32;35082;-62
2023/04/22 03:51:36;;;;;;;;;;;;;;;13.49;50.97;100248.50;5434953;32;34455;-62
2023/04/22 03:54:38;;;;;;;;;;;;;;;13.17;52.05;100252.81;5446755;32;35717;-72
2023/04/22 03:57:40;;;;;;;;;;;;;;;13.64;50.79;100247.69;5441148;32;45110;-70
2023/04/22 04:00:42;;;;;;;;;;;;;;;13.29;51.89;100249.56;5444492;32;34786;-71
2023/04/22 04:03:44;;;;;;;;;;;;;;;13.05;52.33;100258.72;5446889;32;36209;-62
2023/04/22 04:06:46;;;;;;;;;;;;;;;13.10;52.56;100256.69;5438985;32;34880;-69
2023/04/22 04:09:48;;;;;;;;;;;;;;;13.15;51.91;100254.69;5450005;32;35461;-70
2023/04/22 04:12:50;;;;;;;;;;;;;;;13.10;52.35;100261.97;5426659;32;35711;-69
2023/04/22 04:15:52;;;;;;;;;;;;;;;13.36;51.91;100258.03;5450130;32;35031;-69
2023/04/22 04:18:54;;;;;;;;;;;;;;;13.86;50.47;100255.31;5441265;32;34514;-71
2023/04/22 04:21:56;;;;;;;;;;;;;;;12.64;53.82;100266.94;5425521;32;35289;-62
2023/04/22 04:24:58;;;;;;;;;;;;;;;13.55;51.62;100264.88;5446588;32;34973;-71
2023/04/22 04:28:00;;;;;;;;;;;;;;;13.11;52.88;100271.59;5440988;32;34953;-62
2023/04/22 04:31:02;;;;;;;;;;;;;;;13.14;52.73;100277.59;5399788;32;35109;-62
2023/04/22 04:34:04;;;;;;;;;;;;;;;12.96;53.45;100281.16;5440547;32;34697;-62
2023/04/22 04:37:06;;;;;;;;;;;;;;;13.07;52.95;100283.22;5449804;32;35518;-69
2023/04/22 04:40:09;;;;;;;;;;;;;;;13.42;52.16;100278.81;5442586;32;34121;-70
2023/04/22 04:43:11;;;;;;;;;;;;;;;14.01;50.60;100285.31;5424455;32;45274;-69
2023/04/22 04:46:13;;;;;;;;;;;;;;;14.50;49.38;100280.81;5428620;32;35561;-61
2023/04/22 04:49:15;;;;;;;;;;;;;;;14.32;49.57;100289.75;5415192;32;35113;-61
2023/04/22 04:52:17;;;;;;;;;;;;;;;13.42;52.21;100300.78;5417887;32;34340;-61
2023/04/22 04:55:19;;;;;;;;;;;;;;;13.43;52.02;100291.09;5441712;32;36373;-61
2023/04/22 04:58:21;;;;;;;;;;;;;;;13.12;52.92;100295.25;5448701;32;35085;-70
2023/04/22 05:01:23;;;;;;;;;;;;;;;13.64;51.55;100289.09;5442624;32;35056;-70
2023/04/22 05:04:25;;;;;;;;;;;;;;;14.51;49.14;100292.25;5433223;32;34727;-71
2023/04/22 05:07:27;;;;;;;;;;;;;;;15.34;47.36;100289.13;5444123;32;35213;-63
2023/04/22 05:10:29;;;;;;;;;;;;;;;15.43;46.73;100285.91;5425875;32;34942;-61
2023/04/22 05:13:31;;;;;;;;;;;;;;;15.63;45.56;100299.75;5429388;32;35092;-70
2023/04/22 05:16:33;;;;;;;;;;;;;;;14.95;46.73;100291.50;5436901;32;34732;-68
2023/04/22 05:19:35;;;;;;;;;;;;;;;16.09;42.98;100297.72;5449224;32;34812;-69
2023/04/22 05:22:40;;;;;;;;;;;;;;;16.38;42.35;100285.28;5435028;32;35527;-60
2023/04/22 05:25:42;;;;;;;;;;;;;;;15.94;43.21;100286.31;5441976;32;47246;-61
2023/04/22 05:28:44;;;;;;;;;;;;;;;16.03;43.24;100300.78;5434349;32;36730;-61
2023/04/22 05:31:46;;;;;;;;;;;;;;;16.01;43.16;100291.22;5420560;32;34474;-61
2023/04/22 05:34:48;;;;;;;;;;;;;;;14.74;46.03;100297.06;5449631;32;34979;-71
2023/04/22 05:37:50;;;;;;;;;;;;;;;14.73;46.21;100297.16;5441083;32;35402;-62
2023/04/22 05:40:52;;;;;;;;;;;;;;;15.02;45.49;100288.37;5449139;32;35108;-61
2023/04/22 05:43:54;;;;;;;;;;;;;;;14.94;45.56;100297.69;5442070;32;34421;-68
2023/04/22 05:46:56;;;;;;;;;;;;;;;15.10;45.52;100301.16;5439375;32;35014;-62
2023/04/22 05:49:58;;;;;;;;;;;;;;;15.33;44.78;100297.16;5447633;32;34831;-70
2023/04/22 05:52:59;;;;;;;;;;;;;;;14.49;47.00;100305.56;5421786;32;35309;-63
2023/04/22 05:56:01;;;;;;;;;;;;;;;15.57;44.06;100308.88;5449575;32;34645;-71
2023/04/22 05:59:03;;;;;;;;;;;;;;;14.88;45.78;100309.53;5441113;32;36712;-72
2023/04/22 06:02:05;;;;;;;;;;;;;;;14.05;47.98;100311.50;5448318;32;35324;-63
2023/04/22 06:05:08;;;;;;;;;;;;;;;14.90;45.06;100308.47;5442221;32;35495;-63
2023/04/22 06:08:10;;;;;;;;;;;;;;;15.49;43.66;100311.16;5424220;32;35650;-62
2023/04/22 06:11:12;;;;;;;;;;;;;;;16.95;40.75;100308.13;5450698;32;34877;-72
2023/04/22 06:14:14;;;;;;;;;;;;;;;16.84;40.49;100306.16;5440368;32;34851;-70
2023/04/22 06:17:16;;;;;;;;;;;;;;;17.23;40.19;100307.94;5433186;32;34623;-74
2023/04/22 06:20:18;;;;;;;;;;;;;;;19.73;35.26;100302.09;5441098;32;35508;-73
2023/04/22 06:23:20;;;;;;;;;;;;;;;21.05;32.35;100297.56;5443803;32;35576;-70
2023/04/22 06:26:22;;;;;;;;;;;;;;;20.78;32.90;100303.41;5442212;32;34384;-71
2023/04/22 06:29:24;;;;;;;;;;;;;;;21.69;30.74;100306.44;5432771;32;34469;-66
2023/04/22 06:32:26;;;;;;;;;;;;;;;22.00;29.91;100305.47;5422160;32;35138;-73
2023/04/22 06:35:28;;;;;;;;;;;;;;;21.12;30.89;100292.56;5441609;32;34332;-63
2023/04/22 06:38:30;;;;;;;;;;;;;;;20.58;30.80;100306.03;5433443;32;33879;-63
2023/04/22 06:41:32;;;;;;;;;;;;;;;23.16;26.93;100280.72;5440844;32;35229;-63
2023/04/22 06:44:34;;;;;;;;;;;;;;;22.24;27.77;100298.97;5426449;32;34753;-64
2023/04/22 06:47:36;;;;;;;;;;;;;;;22.75;27.06;100289.88;5440082;32;35333;-62
2023/04/22 06:50:38;;;;;;;;;;;;;;;23.01;26.52;100287.50;5437409;32;34776;-71
2023/04/22 06:53:40;;;;;;;;;;;;;;;23.91;25.91;100293.25;5427455;32;44684;-70
2023/04/22 06:56:42;;;;;;;;;;;;;;;24.74;24.51;100291.34;5422349;32;34385;-71
2023/04/22 06:59:44;;;;;;;;;;;;;;;24.72;24.47;100287.94;5448459;32;34745;-64
2023/04/22 07:02:47;;;;;;;;;;;;;;;25.37;22.69;100280.47;5438455;32;34324;-72
2023/04/22 07:05:50;;;;;;;;;;;;;;;24.10;23.85;100286.94;5446860;32;35112;-70
2023/04/22 07:08:52;;;;;;;;;;;;;;;23.85;24.33;100280.41;5425463;32;35735;-63
2023/04/22 07:11:54;;;;;;;;;;;;;;;22.39;26.78;100277.00;5423859;32;36063;-71
2023/04/22 07:14:56;;;;;;;;;;;;;;;22.51;26.28;100272.38;5449114;32;35136;-72
2023/04/22 07:17:58;;;;;;;;;;;;;;;23.85;24.81;100290.31;5440231;32;35513;-63
2023/04/22 07:21:00;;;;;;;;;;;;;;;25.82;22.37;100284.78;5444206;32;35029;-63
2023/04/22 07:24:02;;;;;;;;;;;;;;;24.62;23.37;100284.50;5425144;32;34849;-63
2023/04/22 07:27:04;;;;;;;;;;;;;;;23.88;23.16;100288.16;5446585;32;34527;-70
2023/04/22 07:30:06;;;;;;;;;;;;;;;24.68;21.80;100291.97;5412044;32;34600;-73
2023/04/22 07:33:08;;;;;;;;;;;;;;;25.36;21.23;100292.22;5419464;32;34858;-72
2023/04/22 07:36:10;;;;;;;;;;;;;;;;;;5449844;32;45897;-71
2023/04/22 07:39:12;;;;;;;;;;;;;;;26.55;19.37;100281.53;5441990;32;34601;-72
2023/04/22 07:42:14;;;;;;;;;;;;;;;24.20;22.20;100297.59;5450488;32;35841;-63
2023/04/22 07:45:16;;;;;;;;;;;;;;;24.61;21.79;100296.25;5442301;32;34774;-71
2023/04/22 07:48:17;;;;;;;;;;;;;;;27.28;18.71;100283.44;5444196;32;34275;-71
2023/04/22 07:51:19;;;;;;;;;;;;;;;27.64;18.42;100286.59;5441107;32;35633;-64
2023/04/22 07:54:21;;;;;;;;;;;;;;;26.42;19.67;100294.66;5420863;32;35022;-62
2023/04/22 07:57:24;;;;;;;;;;;;;;;25.95;19.68;100283.50;5434498;32;34127;-71
2023/04/22 08:00:26;;;;;;;;;;;;;;;26.52;19.53;100278.31;5441453;32;34615;-70
2023/04/22 08:03:28;;;;;;;;;;;;;;;24.96;20.27;100278.44;5449778;32;34287;-61
2023/04/22 08:06:30;;;;;;;;;;;;;;;25.23;20.68;100293.63;5442355;32;35714;-71
2023/04/22 08:09:32;;;;;;;;;;;;;;;27.02;18.94;100280.06;5448226;32;35726;-63
2023/04/22 08:12:34;;;;;;;;;;;;;;;25.95;19.55;100272.72;5428632;32;34188;-71
2023/04/22 08:15:36;;;;;;;;;;;;;;;25.41;20.24;100278.28;5426844;32;34403;-71
2023/04/22 08:18:38;;;;;;;;;;;;;;;28.39;17.05;100278.03;5449388;32;34930;-72
2023/04/22 08:21:40;;;;;;;;;;;;;;;28.47;16.84;100274.47;5441711;32;44785;-63
2023/04/22 08:24:42;;;;;;;;;;;;;;;27.68;17.27;100281.66;5449964;32;35629;-62
2023/04/22 08:27:44;;;;;;;;;;;;;;;27.94;17.04;100276.88;5440369;32;35263;-71
2023/04/22 08:30:46;;;;;;;;;;;;;;;28.24;15.86;100277.94;5427800;32;35066;-62
2023/04/22 08:33:49;;;;;;;;;;;;;;;25.72;18.60;100292.13;5442352;32;35254;-71
2023/04/22 08:36:51;;;;;;;;;;;;;;;28.19;16.27;100279.47;5440740;32;37508;-63
2023/04/22 08:39:53;;;;;;;;;;;;;;;28.26;16.45;100275.88;5435254;32;35397;-71
2023/04/22 08:42:55;;;;;;;;;;;;;;;27.94;16.44;100279.59;5441053;32;35296;-72
2023/04/22 08:45:57;;;;;;;;;;;;;;;26.50;17.93;100280.34;5448509;32;35403;-72
2023/04/22 08:49:02;;;;;;;;;;;;;;;27.75;17.04;100280.84;5438442;32;34349;-71
2023/04/22 08:52:05;;;;;;;;;;;;;;;27.98;16.88;100278.22;5442242;32;35356;-71
2023/04/22 08:55:07;;;;;;;;;;;;;;;26.76;18.00;100278.38;5417893;32;35437;-62
2023/04/22 08:58:12;;;;;;;;;;;;;;;26.60;18.26;100268.41;5440671;32;34363;-71
2023/04/22 09:01:14;;;;;;;;;;;;;;;27.10;17.64;100269.28;5462547;32;44838;-73
2023/04/22 09:04:17;;;;;;;;;;;;;;;26.71;18.00;100272.62;5431647;32;34651;-63
2023/04/22 09:07:26;;;;;;;;;;;;;;;25.83;18.69;100266.81;5438955;32;35156;-63
2023/04/22 09:10:28;;;;;;;;;;;;;;;28.40;16.15;100247.28;5427289;32;35530;-63
2023/04/22 09:13:33;;;;;;;;;;;;;;;27.03;16.74;100266.41;5423851;32;34678;-62
2023/04/22 09:16:41;;;;;;;;;;;;;;;30.00;14.37;100259.69;5428652;32;35402;-71
2023/04/22 09:19:46;;;;;;;;;;;;;;;29.42;14.71;100266.75;5419675;32;44880;-71
2023/04/22 09:22:48;;;;;;;;;;;;;;;28.69;15.58;100267.37;5431142;32;35902;-62
2023/04/22 09:25:50;;;;;;;;;;;;;;;28.76;15.85;100268.34;5441577;32;35944;-71
2023/04/22 09:28:53;;;;;;;;;;;;;;;27.79;16.31;100271.37;5443892;32;35485;-72
2023/04/22 09:31:55;;;;;;;;;;;;;;;29.40;14.95;100266.97;5420155;32;37224;-72
2023/04/22 09:34:57;;;;;;;;;;;;;;;29.11;15.22;100264.19;5424432;32;35017;-62
2023/04/22 09:38:00;;;;;;;;;;;;;;;28.95;15.12;100258.94;5432481;32;34750;-63
2023/04/22 09:41:07;;;;;;;;;;;;;;;27.71;16.15;100257.06;5442234;32;34768;-64
2023/04/22 09:44:10;;;;;;;;;;;;;;;29.53;14.84;100252.81;5448963;32;35704;-62
2023/04/22 09:47:12;;;;;;;;;;;;;;;29.10;15.20;100248.97;5439199;32;44951;-72
2023/04/22 09:50:14;;;;;;;;;;;;;;;30.17;14.19;100250.34;5429358;32;35860;-64
2023/04/22 09:53:17;;;;;;;;;;;;;;;30.14;14.64;100231.78;5422956;32;34606;-72
2023/04/22 09:56:19;;;;;;;;;;;;;;;29.10;15.89;100247.09;5426006;32;34897;-64
2023/04/22 09:59:22;;;;;;;;;;;;;;;30.07;14.47;100232.66;5444180;32;36935;-63
2023/04/22 10:02:27;;;;;;;;;;;;;;;28.94;15.20;100236.44;5415907;32;36001;-64
2023/04/22 10:05:29;;;;;;;;;;;;;;;28.99;15.79;100234.03;5430341;32;35028;-63
2023/04/22 10:08:32;;;;;;;;;;;;;;;29.30;15.44;100228.47;5436139;32;35275;-63
2023/04/22 10:11:34;;;;;;;;;;;;;;;28.96;15.70;100229.00;5446343;32;34571;-72
2023/04/22 10:14:36;;;;;;;;;;;;;;;31.33;13.71;100218.50;5440725;32;35013;-71
2023/04/22 10:17:38;;;;;;;;;;;;;;;28.57;15.68;100216.44;5439986;32;34389;-71
2023/04/22 10:20:41;;;;;;;;;;;;;;;28.21;16.24;100216.16;5445790;32;34475;-71
2023/04/22 10:23:46;;;;;;;;;;;;;;;29.32;15.39;100217.50;5440569;32;34815;-73
2023/04/22 10:26:56;;;;;;;;;;;;;;;29.13;15.17;100214.28;5448478;32;35293;-64
2023/04/22 10:29:58;;;;;;;;;;;;;;;26.86;17.39;100221.59;5427483;32;34946;-71
2023/04/22 10:33:27;;;;;;;;;;;;;;;28.44;16.27;100212.66;5434744;32;35475;-71
2023/04/22 10:36:30;;;;;;;;;;;;;;;27.47;16.95;100212.91;5446377;32;34985;-63
2023/04/22 10:39:32;;;;;;;;;;;;;;;27.57;16.55;100211.88;5425965;32;35003;-74
2023/04/22 10:42:34;;;;;;;;;;;;;;;31.50;13.62;100197.31;5447823;32;34301;-63
2023/04/22 10:45:36;;;;;;;;;;;;;;;27.78;16.11;100204.91;5440586;32;34456;-63
2023/04/22 10:48:47;;;;;;;;;;;;;;;28.94;15.66;100198.59;5426047;32;36817;-73
2023/04/22 10:51:50;;;;;;;;;;;;;;;30.37;14.40;100190.09;5426249;32;44638;-71
2023/04/22 10:54:52;;;;;;;;;;;;;;;32.40;12.69;100185.34;5425278;32;35701;-70
2023/04/22 10:57:54;;;;;;;;;;;;;;;29.90;14.47;100189.56;5447777;32;35026;-71
2023/04/22 11:01:01;;;;;;;;;;;;;;;27.53;16.17;100192.47;5439981;32;35073;-64
2023/04/22 11:04:30;;;;;;;;;;;;;;;26.88;17.09;100200.69;5448007;32;34779;-63
2023/04/22 11:07:34;;;;;;;;;;;;;;;25.87;18.19;100199.00;5438475;32;34914;-63
2023/04/22 11:10:39;;;;;;;;;;;;;;;24.89;19.32;100208.31;5442293;32;34642;-63
2023/04/22 11:13:46;;;;;;;;;;;;;;;25.24;18.87;100204.72;5449915;32;45872;-73
2023/04/22 11:16:50;;;;;;;;;;;;;;;25.57;18.89;100186.09;5442742;32;34956;-63
2023/04/22 11:19:55;;;;;;;;;;;;;;;24.63;19.54;100204.75;5450157;32;35727;-63
2023/04/22 11:22:57;;;;;;;;;;;;;;;24.42;19.66;100197.00;5439468;32;34323;-72
2023/04/22 11:26:03;;;;;;;;;;;;;;;25.23;18.91;100197.66;5443655;32;35090;-62
2023/04/22 11:29:05;;;;;;;;;;;;;;;24.42;19.58;100194.31;5444889;32;35548;-71
2023/04/22 11:32:08;;;;;;;;;;;;;;;24.27;19.88;100197.50;5424747;32;36664;-63
2023/04/22 11:35:11;;;;;;;;;;;;;;;24.28;19.57;100193.84;5449961;32;36713;-63
2023/04/22 11:38:13;;;;;;;;;;;;;;;25.66;18.86;100187.78;5442264;32;35131;-63
2023/04/22 11:41:19;;;;;;;;;;;;;;;24.49;19.36;100188.19;5450333;32;34492;-62
2023/04/22 11:44:25;;;;;;;;;;;;;;;23.55;20.47;100187.56;5442518;32;34803;-71
2023/04/22 11:47:30;;;;;;;;;;;;;;;24.93;18.47;100188.19;5439701;32;36416;-72
2023/04/22 11:50:36;;;;;;;;;;;;;;;25.15;17.89;100194.91;5431542;32;35047;-71
2023/04/22 11:53:39;;;;;;;;;;;;;;;24.66;18.36;100193.69;5422558;32;34250;-62
2023/04/22 11:56:42;;;;;;;;;;;;;;;24.27;19.27;100192.13;5432826;32;47072;-62
2023/04/22 11:59:43;;;;;;;;;;;;;;;26.15;17.43;100191.53;5440929;32;35162;-71
2023/04/22 12:02:58;;;;;;;;;;;;;;;27.94;15.72;100168.84;5444556;32;35252;-63
2023/04/22 12:06:02;;;;;;;;;;;;;;;28.94;14.63;100176.94;5444404;32;35169;-71
2023/04/22 12:09:04;;;;;;;;;;;;;;;26.63;16.42;100176.44;5435835;32;35310;-70
2023/04/22 12:12:06;;;;;;;;;;;;;;;26.72;16.55;100180.78;5434955;32;36221;-70
2023/04/22 12:15:09;;;;;;;;;;;;;;;26.88;16.56;100181.81;5426870;32;34404;-62
2023/04/22 12:18:14;;;;;;;;;;;;;;;25.65;17.62;100181.56;5448665;32;44511;-63
2023/04/22 12:21:18;;;;;;;;;;;;;;;25.65;17.75;100175.34;5441904;32;35468;-71
2023/04/22 12:24:25;;;;;;;;;;;;;;;25.85;17.33;100173.25;5443639;32;35363;-71
2023/04/22 12:27:27;;;;;;;;;;;;;;;27.07;16.26;100168.00;5448680;32;35727;-68
2023/04/22 12:30:29;;;;;;;;;;;;;;;27.90;15.69;100155.91;5409281;32;35334;-63
2023/04/22 12:33:31;;;;;;;;;;;;;;;31.34;13.21;100149.56;5446243;32;35294;-63
2023/04/22 12:36:33;;;;;;;;;;;;;;;31.63;13.04;100147.66;5426394;32;34483;-71
2023/04/22 12:39:36;;;;;;;;;;;;;;;33.71;11.27;100147.28;5430399;32;34545;-71
2023/04/22 12:42:38;;;;;;;;;;;;;;;31.89;12.52;100146.94;5440850;32;35436;-63
2023/04/22 12:45:40;;;;;;;;;;;;;;;30.68;13.26;100152.66;5442483;32;43703;-64
2023/04/22 12:48:42;;;;;;;;;;;;;;;25.88;17.16;100160.28;5446668;32;35181;-71
2023/04/22 12:51:44;;;;;;;;;;;;;;;27.22;16.17;100151.94;5422050;32;34448;-69
2023/04/22 12:54:46;;;;;;;;;;;;;;;24.99;17.90;100154.44;5434072;32;36078;-63
2023/04/22 12:57:50;;;;;;;;;;;;;;;25.44;17.90;100148.84;5440959;32;34996;-63
2023/04/22 13:00:52;;;;;;;;;;;;;;;26.09;17.35;100127.53;5434826;32;34753;-71
2023/04/22 13:03:54;;;;;;;;;;;;;;;25.86;17.45;100143.47;5441678;32;37221;-71
2023/04/22 13:06:56;;;;;;;;;;;;;;;26.32;17.18;100137.66;5439194;32;35077;-62
2023/04/22 13:09:58;;;;;;;;;;;;;;;27.22;16.02;100120.41;5449209;32;35548;-63
2023/04/22 13:13:02;;;;;;;;;;;;;;;26.68;16.64;100127.41;5441794;32;35232;-63
2023/04/22 13:16:19;;;;;;;;;;;;;;;25.31;17.90;100127.78;5449358;32;44383;-63
2023/04/22 13:19:24;;;;;;;;;;;;;;;26.11;17.08;100128.22;5440368;32;34849;-62
2023/04/22 13:22:26;;;;;;;;;;;;;;;26.97;16.49;100124.97;5443797;32;34780;-71
2023/04/22 13:25:28;;;;;;;;;;;;;;;25.35;17.67;100137.19;5445836;32;35048;-70
2023/04/22 13:28:30;;;;;;;;;;;;;;;25.52;17.53;100118.44;5439757;32;34940;-63
2023/04/22 13:31:32;;;;;;;;;;;;;;;25.93;17.09;100122.94;5427360;32;34758;-65
2023/04/22 13:34:35;;;;;;;;;;;;;;;25.90;17.25;100122.47;5426057;32;36580;-64
2023/04/22 13:37:38;;;;;;;;;;;;;;;24.81;18.88;100131.16;5434736;32;34625;-71
2023/04/22 13:40:40;;;;;;;;;;;;;;;25.95;18.05;100119.25;5426254;32;34653;-71
2023/04/22 13:43:42;;;;;;;;;;;;;;;27.19;16.85;100112.66;5443550;32;45364;-63
2023/04/22 13:46:43;;;;;;;;;;;;;;;26.48;17.60;100115.31;5445134;32;35288;-63
2023/04/22 13:49:45;;;;;;;;;;;;;;;26.25;17.70;100109.69;5439019;32;34331;-71
2023/04/22 13:52:47;;;;;;;;;;;;;;;25.82;17.34;100114.34;5425372;32;35109;-63
2023/04/22 13:55:49;;;;;;;;;;;;;;;24.68;18.84;100122.69;5441408;32;35690;-62
2023/04/22 13:58:51;;;;;;;;;;;;;;;25.67;18.19;100114.13;5448902;32;34749;-62
2023/04/22 14:01:54;;;;;;;;;;;;;;;25.08;18.53;100114.03;5439599;32;35830;-62
2023/04/22 14:04:57;;;;;;;;;;;;;;;25.43;18.45;100098.72;5426277;32;35600;-61
2023/04/22 14:07:59;;;;;;;;;;;;;;;25.35;18.50;100114.84;5441104;32;34825;-62
2023/04/22 14:11:02;;;;;;;;;;;;;;;24.53;19.25;100122.37;5413671;32;873654;-63
2023/04/22 14:14:04;;;;;;;;;;;;;;;25.32;18.75;100099.03;5433869;32;34701;-63
2023/04/22 14:17:06;;;;;;;;;;;;;;;25.76;18.63;100110.50;5439886;32;35454;-73
2023/04/22 14:20:09;;;;;;;;;;;;;;;24.79;19.85;100114.34;5448699;32;34983;-70
2023/04/22 14:23:11;;;;;;;;;;;;;;;25.69;18.82;100104.00;5435108;32;45050;-64
2023/04/22 14:26:13;;;;;;;;;;;;;;;24.35;20.19;100118.91;5442251;32;34935;-70
2023/04/22 14:29:15;;;;;;;;;;;;;;;24.88;19.64;100109.88;5411142;32;34490;-70
2023/04/22 14:32:20;;;;;;;;;;;;;;;24.66;19.79;100113.06;5425363;32;35173;-70
2023/04/22 14:35:22;;;;;;;;;;;;;;;23.83;20.97;100115.16;5433767;32;34927;-63
2023/04/22 14:38:24;;;;;;;;;;;;;;;23.69;21.09;100109.31;5439721;32;35138;-69
2023/04/22 14:41:26;;;;;;;;;;;;;;;25.21;19.49;100105.53;5448193;32;34618;-63
2023/04/22 14:44:28;;;;;;;;;;;;;;;24.92;19.42;100105.00;5425834;32;34790;-70
2023/04/22 14:47:30;;;;;;;;;;;;;;;24.71;19.87;100111.59;5425835;32;36011;-61
2023/04/22 14:50:33;;;;;;;;;;;;;;;24.95;19.40;100110.91;5443928;32;36237;-64
2023/04/22 14:53:35;;;;;;;;;;;;;;;23.79;21.06;100111.94;5434956;32;34182;-72
2023/04/22 14:56:37;;;;;;;;;;;;;;;24.78;19.83;100098.37;5447737;32;35417;-72
2023/04/22 14:59:39;;;;;;;;;;;;;;;24.21;20.58;100096.06;5419341;32;34759;-71
2023/04/22 15:02:41;;;;;;;;;;;;;;;24.83;19.97;100099.59;5433769;32;46432;-63
2023/04/22 15:05:48;;;;;;;;;;;;;;;23.56;20.91;100106.09;5411629;32;35434;-63
2023/04/22 15:08:52;;;;;;;;;;;;;;;24.80;19.79;100091.84;5435388;32;34724;-63
2023/04/22 15:11:56;;;;;;;;;;;;;;;24.39;20.25;100092.56;5447583;32;35093;-63
2023/04/22 15:14:58;;;;;;;;;;;;;;;25.27;19.33;100085.22;5419888;32;36357;-63
2023/04/22 15:18:00;;;;;;;;;;;;;;;24.07;20.83;100107.34;5448248;32;34837;-62
2023/04/22 15:21:04;;;;;;;;;;;;;;;25.06;19.43;100096.41;5438945;32;34382;-63
2023/04/22 15:24:06;;;;;;;;;;;;;;;24.43;20.27;100102.84;5447247;32;34752;-62
2023/04/22 15:27:08;;;;;;;;;;;;;;;23.93;20.70;100107.88;5436285;32;34753;-70
2023/04/22 15:30:10;;;;;;;;;;;;;;;23.96;20.92;100103.06;5424371;32;44909;-63
2023/04/22 15:33:12;;;;;;;;;;;;;;;23.72;21.27;100100.97;5441552;32;36349;-70
2023/04/22 15:36:17;;;;;;;;;;;;;;;23.96;20.70;100103.06;5424962;32;34890;-71
2023/04/22 15:39:19;;;;;;;;;;;;;;;25.11;19.49;100091.34;5434324;32;34920;-71